Storm Events Database

Event Details

Event Thunderstorm Wind
Magnitude 50 kts.
State MISSISSIPPI
County/Area TUNICA
WFO MEG
Report Source Law Enforcement
NCDC Data Source CSV
Begin Date 2009-06-12 15:25:00.0 CST-6
Begin Location 0N TUNICA
Begin Lat/Lon 34.68/-90.38
End Date 2009-06-12 15:40:00.0 CST-6
End Location 0N DUNDEE
End Lat/Lon 34.52/-90.45
Deaths Direct/Indirect 0/0 (fatality details below, when available...)
Injuries Direct/Indirect 0/0
Property Damage
Crop Damage 0.00K
Episode Narrative A stationary front was located across the Mid-South during the day on June 12th, 2009. During the early morning hours, a mesoscale convective system developed over Eastern Oklahoma and tracked east into the Mid-South during the afternoon and evening hours. A derecho tracked across the Mid-South producing numerous reports of damaging winds, large hail and flash flooding. Wind speeds were reported as high as 80 mph. Isolated tornadoes occurred along the bow echo. In addition, scattered thunderstorms developed over ahead of the bow echo and produced large hail, damaging winds and flash flooding as well.
Event Narrative Straight line winds knocked down trees and power lines county wide across Tunica County.


     ‚Äč



All events for this episode:

Location County/Zone St. Date Time T.Z. Type Mag Dth Inj PrD CrD
Totals: 0 1 4.018M 0.00K
BRUCE CALHOUN CO. MS 06/12/2009 13:10 CST-6 Hail 1.00 in. 0 0 0.00K 0.00K
BRUCE CALHOUN CO. MS 06/12/2009 13:12 CST-6 Hail 1.00 in. 0 0 0.00K 0.00K
ABERDEEN MONROE CO. MS 06/12/2009 13:45 CST-6 Hail 1.00 in. 0 0 0.00K 0.00K
BATESVILLE PANOLA CO. MS 06/12/2009 14:05 CST-6 Hail 1.00 in. 0 0 0.00K 0.00K
BECKER MONROE CO. MS 06/12/2009 14:07 CST-6 Thunderstorm Wind 50 kts. EG 0 0 1.00K 0.00K
BRUCE HASTING ARPT CALHOUN CO. MS 06/12/2009 14:10 CST-6 Thunderstorm Wind 50 kts. EG 0 0 1.00K 0.00K
OXFORD LAFAYETTE CO. MS 06/12/2009 14:20 CST-6 Hail 0.75 in. 0 0 0.00K 0.00K
OXFORD LAFAYETTE CO. MS 06/12/2009 14:20 CST-6 Thunderstorm Wind 50 kts. EG 0 0 0.00K 0.00K
BATESVILLE PANOLA CO. MS 06/12/2009 14:50 CST-6 Hail 1.00 in. 0 0 0.00K 0.00K
TUNICA TUNICA CO. MS 06/12/2009 15:25 CST-6 Thunderstorm Wind 50 kts. EG 0 0 0.00K 0.00K
COURTLAND PANOLA CO. MS 06/12/2009 15:35 CST-6 Hail 1.00 in. 0 0 0.00K 0.00K
EUDORA DE SOTO CO. MS 06/12/2009 15:37 CST-6 Thunderstorm Wind 50 kts. EG 0 0 0.00K 0.00K
HERNANDO DE SOTO CO. MS 06/12/2009 15:37 CST-6 Thunderstorm Wind 61 kts. EG 0 0 0.00K 0.00K
STRAYHORN TATE CO. MS 06/12/2009 15:40 CST-6 Thunderstorm Wind 50 kts. EG 0 0 0.00K 0.00K
HORN LAKE DE SOTO CO. MS 06/12/2009 15:41 CST-6 Thunderstorm Wind 63 kts. EG 0 0 0.00K 0.00K
ALDENS DE SOTO CO. MS 06/12/2009 15:45 CST-6 Thunderstorm Wind 52 kts. EG 0 0 0.00K 0.00K
CLARKSDALE COAHOMA CO. MS 06/12/2009 15:50 CST-6 Thunderstorm Wind 50 kts. EG 0 0 6.00K 0.00K
LYON COAHOMA CO. MS 06/12/2009 15:50 CST-6 Hail 1.00 in. 0 0 0.00K 0.00K
OLIVE BRANCH DE SOTO CO. MS 06/12/2009 15:50 CST-6 Thunderstorm Wind 61 kts. EG 0 0 0.00K 0.00K
OLIVE BRANCH DE SOTO CO. MS 06/12/2009 15:50 CST-6 Hail 1.00 in. 0 0 0.00K 0.00K
OLIVE BRANCH DE SOTO CO. MS 06/12/2009 15:50 CST-6 Hail 1.00 in. 0 0 0.00K 0.00K
CEDARVIEW DE SOTO CO. MS 06/12/2009 15:52 CST-6 Hail 0.88 in. 0 0 0.00K 0.00K
BATESVILLE PANOLA CO. MS 06/12/2009 15:55 CST-6 Flash Flood 0 0 0.00K 0.00K
BATESVILLE PANOLA CO. MS 06/12/2009 15:55 CST-6 Thunderstorm Wind 50 kts. EG 0 0 0.00K 0.00K
BATESVILLE PANOLA CO. MS 06/12/2009 15:58 CST-6 Hail 1.75 in. 0 0 0.00K 0.00K
BET TATE CO. MS 06/12/2009 15:58 CST-6 Thunderstorm Wind 50 kts. EG 0 0 0.00K 0.00K
OLIVE BRANCH DE SOTO CO. MS 06/12/2009 15:58 CST-6 Tornado EF2 0 1 4.000M 0.00K
OLIVE BRANCH DE SOTO CO. MS 06/12/2009 15:58 CST-6 Thunderstorm Wind 50 kts. EG 0 0 0.00K 0.00K
OLIVE BRANCH DE SOTO CO. MS 06/12/2009 15:59 CST-6 Thunderstorm Wind 68 kts. MG 0 0 0.00K 0.00K
BYHALIA MARSHALL CO. MS 06/12/2009 16:00 CST-6 Thunderstorm Wind 70 kts. EG 0 0 0.00K 0.00K
MARKS QUITMAN CO. MS 06/12/2009 16:00 CST-6 Thunderstorm Wind 50 kts. EG 0 0 0.00K 0.00K
ENID LAKE YALOBUSHA CO. MS 06/12/2009 16:10 CST-6 Thunderstorm Wind 50 kts. EG 0 0 0.00K 0.00K
BURGESS LAFAYETTE CO. MS 06/12/2009 16:15 CST-6 Thunderstorm Wind 50 kts. EG 0 0 0.00K 0.00K
HARMONTOWN LAFAYETTE CO. MS 06/12/2009 16:15 CST-6 Thunderstorm Wind 50 kts. EG 0 0 0.00K 0.00K
OAKLAND YALOBUSHA CO. MS 06/12/2009 16:15 CST-6 Thunderstorm Wind 50 kts. EG 0 0 0.00K 0.00K
PAYNES TALLAHATCHIE CO. MS 06/12/2009 16:15 CST-6 Thunderstorm Wind 50 kts. EG 0 0 0.00K 0.00K
OXFORD LAFAYETTE CO. MS 06/12/2009 16:24 CST-6 Flash Flood 0 0 0.00K 0.00K
WATER VLY YALOBUSHA CO. MS 06/12/2009 16:25 CST-6 Thunderstorm Wind 50 kts. EG 0 0 0.00K 0.00K
HICKORY FLAT BENTON CO. MS 06/12/2009 16:30 CST-6 Thunderstorm Wind 50 kts. EG 0 0 10.00K 0.00K
BRUCE JCT YALOBUSHA CO. MS 06/12/2009 16:35 CST-6 Thunderstorm Wind 50 kts. EG 0 0 0.00K 0.00K
MYRTLE UNION CO. MS 06/12/2009 16:39 CST-6 Thunderstorm Wind 50 kts. EG 0 0 0.00K 0.00K
BANNER CALHOUN CO. MS 06/12/2009 16:45 CST-6 Thunderstorm Wind 50 kts. EG 0 0 0.00K 0.00K
ECRU PONTOTOC CO. MS 06/12/2009 16:45 CST-6 Flash Flood 0 0 0.00K 0.00K
FALKNER TIPPAH CO. MS 06/12/2009 16:45 CST-6 Thunderstorm Wind 61 kts. EG 0 0 0.00K 0.00K
INTERPRISE UNION CO. MS 06/12/2009 16:50 CST-6 Thunderstorm Wind 50 kts. EG 0 0 0.00K 0.00K
ECRU PONTOTOC CO. MS 06/12/2009 16:52 CST-6 Thunderstorm Wind 50 kts. EG 0 0 0.00K 0.00K
WALNUT TIPPAH CO. MS 06/12/2009 16:55 CST-6 Thunderstorm Wind 50 kts. EG 0 0 0.00K 0.00K
CORINTH ALCORN CO. MS 06/12/2009 17:00 CST-6 Thunderstorm Wind 50 kts. EG 0 0 0.00K 0.00K
(TUP)LEMONS ARPT TUP LEE CO. MS 06/12/2009 17:05 CST-6 Thunderstorm Wind 72 kts. MG 0 0 0.00K 0.00K
GUNTOWN LEE CO. MS 06/12/2009 17:06 CST-6 Thunderstorm Wind 70 kts. EG 0 0 0.00K 0.00K
BOONEVILLE PRENTISS CO. MS 06/12/2009 17:10 CST-6 Thunderstorm Wind 50 kts. EG 0 0 0.00K 0.00K
FAIRVIEW ITAWAMBA CO. MS 06/12/2009 17:15 CST-6 Thunderstorm Wind 50 kts. EG 0 0 0.00K 0.00K
HOUSTON CHICKASAW CO. MS 06/12/2009 17:20 CST-6 Thunderstorm Wind 50 kts. EG 0 0 0.00K 0.00K
AMORY MONROE CO. MS 06/12/2009 17:25 CST-6 Thunderstorm Wind 50 kts. EG 0 0 0.00K 0.00K
TISHOMINGO TISHOMINGO CO. MS 06/12/2009 17:25 CST-6 Thunderstorm Wind 50 kts. EG 0 0 0.00K 0.00K
HATLEY MONROE CO. MS 06/12/2009 17:30 CST-6 Thunderstorm Wind 50 kts. EG 0 0 0.00K 0.00K
Totals: 0 1 4.018M 0.00K